createdAt,value
2019-01-03T00:01:25.949Z,20.07
2019-01-03T00:04:25.283Z,12.47
2019-01-03T00:07:24.525Z,12.73
2019-01-03T00:10:24.819Z,12.97
2019-01-03T00:13:24.060Z,15.00
2019-01-03T00:16:23.499Z,12.60
2019-01-03T00:19:23.574Z,11.03
2019-01-03T00:22:22.930Z,15.53
2019-01-03T00:25:22.915Z,13.13
2019-01-03T00:28:25.106Z,15.00
2019-01-03T00:31:30.902Z,10.17
2019-01-03T00:34:21.193Z,14.97
2019-01-03T00:37:22.227Z,12.63
2019-01-03T00:40:22.623Z,12.10
2019-01-03T00:43:20.944Z,9.07
2019-01-03T00:46:26.426Z,9.50
2019-01-03T00:49:26.586Z,13.37
2019-01-03T00:52:26.819Z,13.80
2019-01-03T00:55:27.060Z,13.60
2019-01-03T00:58:29.314Z,9.53
2019-01-03T01:01:31.891Z,12.20
2019-01-03T01:05:05.019Z,8.17
2019-01-03T01:08:04.706Z,10.50
2019-01-03T01:11:04.973Z,11.73
2019-01-03T01:14:05.046Z,10.33
2019-01-03T01:17:04.573Z,17.77
2019-01-03T01:20:04.655Z,14.57
2019-01-03T01:23:04.740Z,13.47
2019-01-03T01:26:04.241Z,12.93
2019-01-03T01:29:03.609Z,10.77
2019-01-03T01:32:03.016Z,14.87
2019-01-03T01:35:03.122Z,14.33
2019-01-03T01:38:02.383Z,7.90
2019-01-03T01:41:02.429Z,9.30
2019-01-03T01:44:02.688Z,9.93
2019-01-03T01:47:01.878Z,9.87
2019-01-03T01:50:02.089Z,12.17
2019-01-03T01:53:02.681Z,14.47
2019-01-03T01:56:30.715Z,13.80
2019-01-03T01:59:30.418Z,11.40
2019-01-03T02:02:29.595Z,16.23
2019-01-03T02:05:31.670Z,12.60
2019-01-03T02:08:31.034Z,10.77
2019-01-03T02:11:37.249Z,11.90
2019-01-03T02:14:42.227Z,9.67
2019-01-03T02:17:44.381Z,13.70
2019-01-03T02:23:49.115Z,13.23
2019-01-03T02:26:48.615Z,11.70
2019-01-03T02:29:51.754Z,14.40
2019-01-03T02:32:51.086Z,10.93
2019-01-03T02:38:40.966Z,12.83
2019-01-03T02:41:40.886Z,12.27
2019-01-03T02:44:45.933Z,8.70
2019-01-03T02:47:45.358Z,10.43
2019-01-03T02:50:45.489Z,13.93
2019-01-03T02:53:48.501Z,13.83
2019-01-03T03:00:02.326Z,12.20
2019-01-03T03:03:03.647Z,12.87
2019-01-03T03:06:03.779Z,9.03
2019-01-03T03:09:06.676Z,10.97
2019-01-03T03:12:21.660Z,10.97
2019-01-03T03:15:21.684Z,10.07
2019-01-03T03:18:21.879Z,14.87
2019-01-03T03:21:22.127Z,11.37
2019-01-03T03:24:25.455Z,10.87
2019-01-03T03:27:27.885Z,8.87
2019-01-03T03:30:27.345Z,10.87
2019-01-03T03:33:30.149Z,10.23
2019-01-03T03:36:32.447Z,13.53
2019-01-03T03:39:32.003Z,8.03
2019-01-03T03:42:34.089Z,9.07
2019-01-03T03:45:39.677Z,11.43
2019-01-03T03:48:39.854Z,8.40
2019-01-03T03:51:40.004Z,14.40
2019-01-03T03:54:46.193Z,9.07
2019-01-03T03:57:45.635Z,11.30
2019-01-03T04:00:45.778Z,7.87
2019-01-03T04:03:48.691Z,8.93
2019-01-03T04:06:51.246Z,14.33
2019-01-03T04:09:51.051Z,13.13
2019-01-03T04:12:45.779Z,12.60
2019-01-03T04:16:05.566Z,9.77
2019-01-03T04:19:25.941Z,10.90
2019-01-03T04:22:30.358Z,11.97
2019-01-03T04:25:30.517Z,15.30
2019-01-03T04:28:30.850Z,9.60
2019-01-03T04:31:30.992Z,7.83
2019-01-03T04:34:31.286Z,8.43
2019-01-03T04:40:42.822Z,9.43
2019-01-03T04:43:33.759Z,10.77
2019-01-03T04:46:28.819Z,9.60
2019-01-03T04:49:28.662Z,13.17
2019-01-03T04:52:28.144Z,14.07
2019-01-03T04:55:27.452Z,10.47
2019-01-03T04:58:27.652Z,9.30
2019-01-03T05:01:30.910Z,13.50
2019-01-03T05:04:26.144Z,11.43
2019-01-03T05:07:25.581Z,9.63
2019-01-03T05:13:42.043Z,7.73
2019-01-03T05:16:41.989Z,9.67
2019-01-03T05:19:42.282Z,8.83
2019-01-03T05:22:32.934Z,11.10
2019-01-03T05:25:32.771Z,13.00
2019-01-03T05:28:32.952Z,11.93
2019-01-03T05:31:33.210Z,9.87
2019-01-03T05:34:33.337Z,14.23
2019-01-03T05:37:32.648Z,6.97
2019-01-03T05:40:32.938Z,9.57
2019-01-03T05:43:33.212Z,8.30
2019-01-03T05:46:33.216Z,9.07
2019-01-03T05:49:36.282Z,6.90
2019-01-03T05:52:39.299Z,9.13
2019-01-03T05:55:38.830Z,12.03
2019-01-03T05:58:39.106Z,14.63
2019-01-03T06:01:39.346Z,8.03
2019-01-03T06:04:39.653Z,11.90
2019-01-03T06:07:43.020Z,6.43
2019-01-03T06:10:43.279Z,8.03
2019-01-03T06:13:43.495Z,10.17
2019-01-03T06:16:40.038Z,12.50
2019-01-03T06:19:41.564Z,10.33
2019-01-03T06:22:44.677Z,6.60
2019-01-03T06:25:44.107Z,7.83
2019-01-03T06:28:43.397Z,9.77
2019-01-03T06:31:42.847Z,10.87
2019-01-03T06:34:42.267Z,11.00
2019-01-03T06:37:42.411Z,6.63
2019-01-03T06:40:42.651Z,7.73
2019-01-03T06:43:48.785Z,9.37
2019-01-03T06:46:48.099Z,9.17
2019-01-03T06:49:48.427Z,11.63
2019-01-03T06:52:50.020Z,9.40
2019-01-03T06:55:49.803Z,11.30
2019-01-03T06:58:49.047Z,10.53
2019-01-03T07:01:34.930Z,8.53
2019-01-03T07:04:34.307Z,9.30
2019-01-03T07:07:34.417Z,12.90
2019-01-03T07:10:36.110Z,10.53
2019-01-03T07:13:35.675Z,9.83
2019-01-03T07:16:33.066Z,13.93
2019-01-03T07:19:33.122Z,13.10
2019-01-03T07:22:33.473Z,10.43
2019-01-03T07:25:33.674Z,11.23
2019-01-03T07:28:40.446Z,15.43
2019-01-03T07:31:40.103Z,9.43
2019-01-03T07:34:40.288Z,14.13
2019-01-03T07:37:40.423Z,9.83
2019-01-03T07:40:39.840Z,15.50
2019-01-03T07:43:40.000Z,10.60
2019-01-03T07:46:41.621Z,9.40
2019-01-03T07:49:41.477Z,9.90
2019-01-03T07:52:47.807Z,10.67
2019-01-03T07:55:37.177Z,12.23
2019-01-03T07:58:42.987Z,13.13
2019-01-03T08:01:42.482Z,9.40
2019-01-03T08:04:42.756Z,8.53
2019-01-03T08:07:43.041Z,8.63
2019-01-03T08:10:46.396Z,9.20
2019-01-03T08:13:46.371Z,7.47
2019-01-03T08:16:45.899Z,9.80
2019-01-03T08:19:45.838Z,9.60
2019-01-03T08:26:37.436Z,8.87
2019-01-03T08:29:24.573Z,12.13
2019-01-03T08:32:31.411Z,12.50
2019-01-03T08:35:37.222Z,16.53
2019-01-03T08:38:37.384Z,9.93
2019-01-03T08:41:36.450Z,13.03
2019-01-03T08:44:40.290Z,12.43
2019-01-03T08:50:32.741Z,16.30
2019-01-03T08:53:52.462Z,8.63
2019-01-03T08:57:13.030Z,8.60
2019-01-03T09:03:33.600Z,9.80
2019-01-03T09:06:33.676Z,10.87
2019-01-03T09:09:33.859Z,13.93
2019-01-03T09:12:36.323Z,15.37
2019-01-03T09:15:36.446Z,10.87
2019-01-03T09:18:36.335Z,11.70
2019-01-03T09:21:39.435Z,13.20
2019-01-03T09:24:42.459Z,11.57
2019-01-03T09:27:41.866Z,8.03
2019-01-03T09:30:41.249Z,10.90
2019-01-03T09:33:41.523Z,10.67
2019-01-03T09:36:41.731Z,11.30
2019-01-03T09:39:41.882Z,9.03
2019-01-03T09:42:42.009Z,16.53
2019-01-03T09:45:22.099Z,18.67
2019-01-03T09:48:02.816Z,13.53
2019-01-03T09:50:42.925Z,17.37
2019-01-03T09:53:23.117Z,12.00
2019-01-03T09:56:03.662Z,14.10
2019-01-03T09:58:43.594Z,13.10
2019-01-03T10:01:23.807Z,15.93
2019-01-03T10:04:03.963Z,16.10
2019-01-03T10:06:43.965Z,12.53
2019-01-03T10:09:24.083Z,15.67
2019-01-03T10:12:04.058Z,15.00
2019-01-03T10:14:44.066Z,10.73
2019-01-03T10:17:24.265Z,17.97
2019-01-03T10:20:04.458Z,14.80
2019-01-03T10:22:47.396Z,12.50
2019-01-03T10:25:27.270Z,24.53
2019-01-03T10:28:07.410Z,17.20
2019-01-03T10:30:48.376Z,19.00
2019-01-03T10:33:28.650Z,21.00
2019-01-03T10:36:08.462Z,14.90
2019-01-03T10:38:48.593Z,19.43
2019-01-03T10:41:28.491Z,17.60
2019-01-03T10:44:08.677Z,14.03
2019-01-03T10:49:37.805Z,19.43
2019-01-03T10:52:18.079Z,17.70
2019-01-03T10:54:58.454Z,15.97
2019-01-03T10:57:38.462Z,18.50
2019-01-03T11:00:18.648Z,15.20
2019-01-03T11:02:58.997Z,14.23
2019-01-03T11:05:39.852Z,15.43
2019-01-03T11:08:20.243Z,16.27
2019-01-03T11:11:02.220Z,14.13
2019-01-03T11:13:42.115Z,17.87
2019-01-03T11:16:22.097Z,17.40
2019-01-03T11:19:05.690Z,24.23
2019-01-03T11:21:47.340Z,15.30
2019-01-03T11:24:27.494Z,12.00
2019-01-03T11:27:07.607Z,17.77
2019-01-03T11:29:48.038Z,13.17
2019-01-03T11:32:28.864Z,14.07
2019-01-03T11:35:09.135Z,14.37
2019-01-03T11:40:17.378Z,14.90
2019-01-03T11:42:57.725Z,14.97
2019-01-03T11:45:37.632Z,14.40
2019-01-03T11:48:17.849Z,16.57
2019-01-03T11:50:58.542Z,19.47
2019-01-03T11:53:38.769Z,12.93
2019-01-03T11:56:19.860Z,16.23
2019-01-03T11:59:00.606Z,18.20
2019-01-03T12:01:41.595Z,13.33
2019-01-03T12:04:21.797Z,17.80
2019-01-03T12:07:01.817Z,21.07
2019-01-03T12:09:41.967Z,14.50
2019-01-03T12:12:25.373Z,17.33
2019-01-03T12:15:05.135Z,18.57
2019-01-03T12:17:45.251Z,14.23
2019-01-03T12:20:25.469Z,17.67
2019-01-03T12:23:05.512Z,16.47
2019-01-03T12:25:45.657Z,16.90
2019-01-03T12:28:25.890Z,14.60
2019-01-03T12:31:06.127Z,16.07
2019-01-03T12:33:46.190Z,16.03
2019-01-03T12:36:26.161Z,15.67
2019-01-03T12:39:06.272Z,12.87
2019-01-03T12:41:46.270Z,17.77
2019-01-03T12:44:26.248Z,20.80
2019-01-03T12:47:06.931Z,14.90
2019-01-03T12:49:46.848Z,29.60
2019-01-03T12:52:27.132Z,15.87
2019-01-03T12:55:09.119Z,19.60
2019-01-03T12:57:49.377Z,18.43
2019-01-03T13:00:29.476Z,25.00
2019-01-03T13:03:09.354Z,21.77
2019-01-03T13:05:37.098Z,19.67
2019-01-03T13:08:24.238Z,20.27
2019-01-03T13:11:04.932Z,19.50
2019-01-03T13:13:44.994Z,20.53
2019-01-03T13:16:25.430Z,18.90
2019-01-03T13:19:05.497Z,24.47
2019-01-03T13:21:45.769Z,18.00
2019-01-03T13:24:25.841Z,18.70
2019-01-03T13:27:06.045Z,18.27
2019-01-03T13:29:46.425Z,26.93
2019-01-03T13:32:26.563Z,21.43
2019-01-03T13:35:06.727Z,19.13
2019-01-03T13:37:47.027Z,18.73
2019-01-03T13:40:27.463Z,23.70
2019-01-03T13:43:07.257Z,22.57
2019-01-03T13:45:47.451Z,20.57
2019-01-03T13:48:15.274Z,18.40
2019-01-03T13:54:02.937Z,16.17
2019-01-03T13:56:44.379Z,17.30
2019-01-03T13:59:24.515Z,18.10
2019-01-03T14:02:04.613Z,24.20
2019-01-03T14:04:32.400Z,21.10
2019-01-03T14:07:12.610Z,26.70
2019-01-03T14:09:52.880Z,18.00
2019-01-03T14:12:33.349Z,22.67
2019-01-03T14:15:14.088Z,21.33
2019-01-03T14:17:54.229Z,20.00
2019-01-03T14:20:34.430Z,22.63
2019-01-03T14:23:14.844Z,25.13
2019-01-03T14:25:54.878Z,16.90
2019-01-03T14:28:35.115Z,20.17
2019-01-03T14:31:15.053Z,20.73
2019-01-03T14:33:56.278Z,23.07
2019-01-03T14:36:36.573Z,23.73
2019-01-03T14:39:16.966Z,22.57
2019-01-03T14:44:37.318Z,27.00
2019-01-03T14:47:17.764Z,20.07
2019-01-03T14:49:57.849Z,19.70
2019-01-03T14:52:25.590Z,24.50
2019-01-03T14:55:12.934Z,21.07
2019-01-03T14:57:52.863Z,19.50
2019-01-03T15:00:20.846Z,19.80
2019-01-03T15:03:01.086Z,21.50
2019-01-03T15:05:41.499Z,19.27
2019-01-03T15:08:21.499Z,21.57
2019-01-03T15:11:01.609Z,16.97
2019-01-03T15:13:42.104Z,22.10
2019-01-03T15:16:09.850Z,21.03
2019-01-03T15:18:37.706Z,19.07
2019-01-03T15:21:05.479Z,19.10
2019-01-03T15:23:33.330Z,35.13
2019-01-03T15:26:01.063Z,20.27
2019-01-03T15:28:28.946Z,22.70
2019-01-03T15:30:56.777Z,20.53
2019-01-03T15:33:24.451Z,18.33
2019-01-03T15:35:52.428Z,19.77
2019-01-03T15:38:20.185Z,18.70
2019-01-03T15:40:47.891Z,18.80
2019-01-03T15:43:15.625Z,22.03
2019-01-03T15:45:43.347Z,18.50
2019-01-03T15:48:11.145Z,17.07
2019-01-03T15:50:38.922Z,18.20
2019-01-03T15:53:06.686Z,18.80
2019-01-03T15:55:47.475Z,23.73
2019-01-03T15:58:28.102Z,17.90
2019-01-03T16:01:08.202Z,20.70
2019-01-03T16:03:48.350Z,15.47
2019-01-03T16:06:28.482Z,24.50
2019-01-03T16:09:08.567Z,22.93
2019-01-03T16:11:48.550Z,16.30
2019-01-03T16:14:28.861Z,20.30
2019-01-03T16:17:09.127Z,20.90
2019-01-03T16:19:36.870Z,19.17
2019-01-03T16:22:04.610Z,18.80
2019-01-03T16:24:32.292Z,16.67
2019-01-03T16:27:00.031Z,19.23
2019-01-03T16:29:27.721Z,23.07
2019-01-03T16:31:55.430Z,19.47
2019-01-03T16:34:23.098Z,23.53
2019-01-03T16:36:50.761Z,21.83
2019-01-03T16:39:18.713Z,22.07
2019-01-03T16:41:46.479Z,17.63
2019-01-03T16:44:14.276Z,17.53
2019-01-03T16:46:42.711Z,16.37
2019-01-03T16:49:10.397Z,16.90
2019-01-03T16:51:38.106Z,53.33
2019-01-03T16:54:05.883Z,30.70
2019-01-03T16:56:33.596Z,18.90
2019-01-03T16:59:01.420Z,17.50
2019-01-03T17:01:29.426Z,17.60
2019-01-03T17:04:00.152Z,18.00
2019-01-03T17:06:27.886Z,17.77
2019-01-03T17:08:55.753Z,17.23
2019-01-03T17:11:23.886Z,22.33
2019-01-03T17:13:52.599Z,19.67
2019-01-03T17:16:20.316Z,21.97
2019-01-03T17:18:48.106Z,16.60
2019-01-03T17:21:16.159Z,20.33
2019-01-03T17:23:43.854Z,16.77
2019-01-03T17:26:11.577Z,19.17
2019-01-03T17:28:39.491Z,20.37
2019-01-03T17:31:07.247Z,22.43
2019-01-03T17:33:35.021Z,16.37
2019-01-03T17:36:02.752Z,18.20
2019-01-03T17:38:30.446Z,21.73
2019-01-03T17:40:58.265Z,17.30
2019-01-03T17:43:27.841Z,15.77
2019-01-03T17:45:55.582Z,21.53
2019-01-03T17:48:23.333Z,18.53
2019-01-03T17:50:51.051Z,20.13
2019-01-03T17:53:18.809Z,19.57
2019-01-03T17:55:46.519Z,19.60
2019-01-03T17:58:14.265Z,19.73
2019-01-03T18:00:43.670Z,25.13
2019-01-03T18:03:11.433Z,18.10
2019-01-03T18:05:39.288Z,17.93
2019-01-03T18:08:07.099Z,16.93
2019-01-03T18:10:35.077Z,30.73
2019-01-03T18:13:03.228Z,29.60
2019-01-03T18:15:31.094Z,22.60
2019-01-03T18:17:58.883Z,22.07
2019-01-03T18:20:26.933Z,22.43
2019-01-03T18:22:54.993Z,20.73
2019-01-03T18:25:22.738Z,21.17
2019-01-03T18:27:50.565Z,22.50
2019-01-03T18:30:18.308Z,23.10
2019-01-03T18:32:46.075Z,21.13
2019-01-03T18:35:13.848Z,23.73
2019-01-03T18:37:41.669Z,20.90
2019-01-03T18:40:12.137Z,23.33
2019-01-03T18:42:39.868Z,21.87
2019-01-03T18:45:09.798Z,22.63
2019-01-03T18:47:37.645Z,22.00
2019-01-03T18:50:05.556Z,22.67
2019-01-03T18:52:33.307Z,17.37
2019-01-03T18:55:01.121Z,22.83
2019-01-03T18:57:28.934Z,21.87
2019-01-03T18:59:56.854Z,17.97
2019-01-03T19:02:24.658Z,21.47
2019-01-03T19:04:52.452Z,27.00
2019-01-03T19:07:20.277Z,22.27
2019-01-03T19:09:48.018Z,20.80
2019-01-03T19:12:15.803Z,26.13
2019-01-03T19:14:44.630Z,19.03
2019-01-03T19:17:12.365Z,21.70
2019-01-03T19:19:40.228Z,24.60
2019-01-03T19:22:08.108Z,29.83
2019-01-03T19:24:35.896Z,19.50
2019-01-03T19:27:03.676Z,19.63
2019-01-03T19:29:31.417Z,20.00
2019-01-03T19:31:59.224Z,20.33
2019-01-03T19:34:26.997Z,22.13
2019-01-03T19:36:54.939Z,23.57
2019-01-03T19:39:22.971Z,19.57
2019-01-03T19:41:50.859Z,18.97
2019-01-03T19:44:18.598Z,20.20
2019-01-03T19:46:46.534Z,22.47
2019-01-03T19:49:14.507Z,22.80
2019-01-03T19:51:42.325Z,23.23
2019-01-03T19:54:10.104Z,24.33
2019-01-03T19:56:38.017Z,25.47
2019-01-03T19:59:05.757Z,20.53
2019-01-03T20:01:33.491Z,19.53
2019-01-03T20:04:01.299Z,20.90
2019-01-03T20:06:29.067Z,21.13
2019-01-03T20:08:56.798Z,20.87
2019-01-03T20:11:25.053Z,21.07
2019-01-03T20:13:52.805Z,22.00
2019-01-03T20:16:20.875Z,22.33
2019-01-03T20:18:48.661Z,21.47
2019-01-03T20:21:17.583Z,18.93
2019-01-03T20:23:45.564Z,18.97
2019-01-03T20:26:13.538Z,20.40
2019-01-03T20:28:41.301Z,20.60
2019-01-03T20:31:09.346Z,23.93
2019-01-03T20:33:37.100Z,22.47
2019-01-03T20:36:07.656Z,21.27
2019-01-03T20:38:35.352Z,23.90
2019-01-03T20:41:03.101Z,20.37
2019-01-03T20:43:31.082Z,19.23
2019-01-03T20:45:59.199Z,19.70
2019-01-03T20:48:27.034Z,20.93
2019-01-03T20:50:54.891Z,20.53
2019-01-03T20:53:23.355Z,19.33
2019-01-03T20:55:51.665Z,22.77
2019-01-03T20:58:19.588Z,20.57
2019-01-03T21:00:47.279Z,21.97
2019-01-03T21:03:15.103Z,23.20
2019-01-03T21:05:42.945Z,27.90
2019-01-03T21:08:10.733Z,18.53
2019-01-03T21:10:38.556Z,21.73
2019-01-03T21:13:06.431Z,20.87
2019-01-03T21:15:46.830Z,25.20
2019-01-03T21:18:26.932Z,18.00
2019-01-03T21:21:07.051Z,21.83
2019-01-03T21:23:47.314Z,24.43
2019-01-03T21:26:27.415Z,22.90
2019-01-03T21:29:07.540Z,23.83
2019-01-03T21:31:36.086Z,28.30
2019-01-03T21:34:16.925Z,23.30
2019-01-03T21:36:44.699Z,21.43
2019-01-03T21:39:25.389Z,20.33
2019-01-03T21:42:05.258Z,23.73
2019-01-03T21:44:45.946Z,28.33
2019-01-03T21:47:26.784Z,25.97
2019-01-03T21:50:08.862Z,22.20
2019-01-03T21:52:49.798Z,22.27
2019-01-03T21:55:31.869Z,23.00
2019-01-03T21:58:12.101Z,26.37
2019-01-03T22:00:52.335Z,23.57
2019-01-03T22:03:32.515Z,24.00
2019-01-03T22:06:13.587Z,19.93
2019-01-03T22:08:53.878Z,25.70
2019-01-03T22:11:34.106Z,24.97
2019-01-03T22:14:14.066Z,26.00
2019-01-03T22:16:54.192Z,22.53
2019-01-03T22:19:34.182Z,23.40
2019-01-03T22:22:14.242Z,27.03
2019-01-03T22:24:54.419Z,23.80
2019-01-03T22:27:34.739Z,30.50
2019-01-03T22:30:15.095Z,26.53
2019-01-03T22:32:55.748Z,29.77
2019-01-03T22:38:16.615Z,25.67
2019-01-03T22:40:57.763Z,25.53
2019-01-03T22:43:37.925Z,28.73
2019-01-03T22:48:57.980Z,22.97
2019-01-03T22:51:38.131Z,30.07
2019-01-03T22:54:18.332Z,28.30
2019-01-03T22:56:59.696Z,27.80
2019-01-03T22:59:39.729Z,26.23
2019-01-03T23:02:19.796Z,31.47
2019-01-03T23:04:59.957Z,28.10
2019-01-03T23:07:40.096Z,24.33
2019-01-03T23:10:20.136Z,23.33
2019-01-03T23:13:03.204Z,29.10
2019-01-03T23:15:44.496Z,26.47
2019-01-03T23:18:31.372Z,30.67
2019-01-03T23:21:07.786Z,30.53
2019-01-03T23:23:47.750Z,29.17
2019-01-03T23:26:28.635Z,30.80
2019-01-03T23:29:08.896Z,24.90
2019-01-03T23:31:49.068Z,24.60
2019-01-03T23:34:29.220Z,26.63
2019-01-03T23:37:10.102Z,29.37
2019-01-03T23:39:50.357Z,29.67
2019-01-03T23:42:33.905Z,28.63
2019-01-03T23:45:14.646Z,26.27
2019-01-03T23:47:54.817Z,27.13
2019-01-03T23:50:36.861Z,24.90
2019-01-03T23:53:16.918Z,27.73
2019-01-03T23:55:57.049Z,26.17
2019-01-03T23:58:37.372Z,29.07
